Silver City, Oklahoma
Current Conditions -  °F | °C
As of 11:35 AM on Thursday 30 Oct 2014 (Local Time) from KCUH Reporting Station
Clear Clear  
Wind Chill: 66°   Ceiling: Unl
Heat Index: 66°   Visibility: 10mi
Dew Point: 50°   Wind: 17mph
Humidity: 56%   Direction: 260°W
Pressure: 30.13"   Gusts: NA
Location:  36.1951°N, 96.5871°W
Report Text: KCUH 301635Z AUTO 26015KT 10SM CLR 19/10 A3013 RMK AO2
Loading
Personal Weather Stations






























Interactive Weather Map
Tropical Storm Tracking
New forecast layout! Learn more

10-Day Weather Forecast

Advertisements
Track Severe Weather on mobile